sensor_id;sensor_type;location;lat;lon;timestamp;P1;durP1;ratioP1;P2;durP2;ratioP2
25649;SDS011;13505;45.196;5.696;2023-07-08T04:31:32;8.55;;;4.32;;
25649;SDS011;13505;45.196;5.696;2023-07-08T04:36:22;7.20;;;4.35;;
25649;SDS011;13505;45.196;5.696;2023-07-08T04:41:14;11.35;;;5.07;;
25649;SDS011;13505;45.196;5.696;2023-07-08T04:46:05;11.40;;;4.87;;
25649;SDS011;13505;45.196;5.696;2023-07-08T04:51:07;14.32;;;4.78;;
25649;SDS011;13505;45.196;5.696;2023-07-08T04:55:58;10.80;;;5.00;;
25649;SDS011;13505;45.196;5.696;2023-07-08T05:00:48;17.08;;;5.28;;
25649;SDS011;13505;45.196;5.696;2023-07-08T05:05:39;12.65;;;5.10;;
25649;SDS011;13505;45.196;5.696;2023-07-08T05:10:29;11.47;;;4.83;;
25649;SDS011;13505;45.196;5.696;2023-07-08T05:15:20;14.48;;;5.07;;
25649;SDS011;13505;45.196;5.696;2023-07-08T05:20:11;12.77;;;4.95;;
25649;SDS011;13505;45.196;5.696;2023-07-08T05:25:03;8.27;;;4.68;;
25649;SDS011;13505;45.196;5.696;2023-07-08T05:29:55;12.75;;;4.82;;
25649;SDS011;13505;45.196;5.696;2023-07-08T05:34:45;11.17;;;4.70;;
25649;SDS011;13505;45.196;5.696;2023-07-08T05:39:36;12.25;;;4.57;;
25649;SDS011;13505;45.196;5.696;2023-07-08T05:44:26;9.25;;;4.88;;
25649;SDS011;13505;45.196;5.696;2023-07-08T05:49:17;8.30;;;4.43;;
25649;SDS011;13505;45.196;5.696;2023-07-08T05:54:07;11.40;;;4.57;;
25649;SDS011;13505;45.196;5.696;2023-07-08T05:58:58;8.77;;;4.60;;
25649;SDS011;13505;45.196;5.696;2023-07-08T06:03:48;11.00;;;4.60;;
25649;SDS011;13505;45.196;5.696;2023-07-08T06:08:40;6.95;;;4.20;;
25649;SDS011;13505;45.196;5.696;2023-07-08T06:13:30;10.30;;;4.72;;
25649;SDS011;13505;45.196;5.696;2023-07-08T06:18:21;12.60;;;5.23;;
25649;SDS011;13505;45.196;5.696;2023-07-08T06:23:11;17.38;;;6.20;;
25649;SDS011;13505;45.196;5.696;2023-07-08T06:28:02;11.02;;;4.78;;
25649;SDS011;13505;45.196;5.696;2023-07-08T06:32:52;9.93;;;4.78;;
25649;SDS011;13505;45.196;5.696;2023-07-08T06:37:42;14.13;;;5.45;;
25649;SDS011;13505;45.196;5.696;2023-07-08T06:42:33;9.30;;;4.93;;
25649;SDS011;13505;45.196;5.696;2023-07-08T06:47:23;11.27;;;4.82;;
25649;SDS011;13505;45.196;5.696;2023-07-08T06:52:14;9.67;;;4.70;;
25649;SDS011;13505;45.196;5.696;2023-07-08T06:57:05;9.30;;;4.28;;
25649;SDS011;13505;45.196;5.696;2023-07-08T07:01:55;17.48;;;6.07;;
25649;SDS011;13505;45.196;5.696;2023-07-08T07:06:46;16.00;;;6.17;;
25649;SDS011;13505;45.196;5.696;2023-07-08T07:11:36;10.43;;;4.57;;
25649;SDS011;13505;45.196;5.696;2023-07-08T07:16:26;7.17;;;4.00;;
25649;SDS011;13505;45.196;5.696;2023-07-08T07:21:17;18.83;;;7.57;;
25649;SDS011;13505;45.196;5.696;2023-07-08T07:26:07;14.55;;;5.35;;
25649;SDS011;13505;45.196;5.696;2023-07-08T07:30:58;18.60;;;7.25;;
25649;SDS011;13505;45.196;5.696;2023-07-08T07:35:49;12.70;;;5.47;;
25649;SDS011;13505;45.196;5.696;2023-07-08T07:40:39;8.53;;;4.57;;
25649;SDS011;13505;45.196;5.696;2023-07-08T07:45:30;12.32;;;5.35;;
25649;SDS011;13505;45.196;5.696;2023-07-08T07:50:20;10.93;;;4.73;;
25649;SDS011;13505;45.196;5.696;2023-07-08T07:55:11;18.90;;;5.10;;
25649;SDS011;13505;45.196;5.696;2023-07-08T08:00:01;9.97;;;4.60;;
25649;SDS011;13505;45.196;5.696;2023-07-08T08:04:52;7.22;;;4.50;;
25649;SDS011;13505;45.196;5.696;2023-07-08T08:09:42;9.80;;;4.87;;
25649;SDS011;13505;45.196;5.696;2023-07-08T08:14:33;12.37;;;4.87;;
25649;SDS011;13505;45.196;5.696;2023-07-08T08:19:23;10.75;;;4.50;;
25649;SDS011;13505;45.196;5.696;2023-07-08T08:24:13;15.60;;;5.73;;
25649;SDS011;13505;45.196;5.696;2023-07-08T08:29:04;10.25;;;5.18;;
25649;SDS011;13505;45.196;5.696;2023-07-08T08:33:54;9.35;;;5.20;;
25649;SDS011;13505;45.196;5.696;2023-07-08T08:38:45;7.78;;;5.00;;
25649;SDS011;13505;45.196;5.696;2023-07-08T08:43:36;9.43;;;4.95;;
25649;SDS011;13505;45.196;5.696;2023-07-08T08:48:30;9.45;;;5.18;;
25649;SDS011;13505;45.196;5.696;2023-07-08T08:53:24;14.88;;;5.47;;
25649;SDS011;13505;45.196;5.696;2023-07-08T09:03:18;11.38;;;4.90;;
25649;SDS011;13505;45.196;5.696;2023-07-08T09:08:16;7.15;;;4.90;;
25649;SDS011;13505;45.196;5.696;2023-07-08T09:13:20;10.68;;;5.30;;
25649;SDS011;13505;45.196;5.696;2023-07-08T09:18:19;15.00;;;5.43;;
25649;SDS011;13505;45.196;5.696;2023-07-08T09:23:18;13.25;;;4.70;;
25649;SDS011;13505;45.196;5.696;2023-07-08T09:28:13;10.63;;;5.15;;
25649;SDS011;13505;45.196;5.696;2023-07-08T09:33:04;11.20;;;5.00;;
25649;SDS011;13505;45.196;5.696;2023-07-08T09:38:02;13.65;;;4.80;;
25649;SDS011;13505;45.196;5.696;2023-07-08T09:43:01;9.57;;;4.82;;
25649;SDS011;13505;45.196;5.696;2023-07-08T09:47:54;7.88;;;4.63;;
25649;SDS011;13505;45.196;5.696;2023-07-08T09:52:49;14.00;;;5.22;;
25649;SDS011;13505;45.196;5.696;2023-07-08T09:57:41;7.75;;;4.68;;
25649;SDS011;13505;45.196;5.696;2023-07-08T10:02:45;11.00;;;4.72;;
25649;SDS011;13505;45.196;5.696;2023-07-08T10:07:45;7.32;;;4.88;;
25649;SDS011;13505;45.196;5.696;2023-07-08T10:12:36;9.50;;;4.43;;
25649;SDS011;13505;45.196;5.696;2023-07-08T10:17:30;12.60;;;5.32;;
25649;SDS011;13505;45.196;5.696;2023-07-08T10:42:27;10.60;;;5.05;;
25649;SDS011;13505;45.196;5.696;2023-07-08T10:47:44;9.30;;;4.85;;
25649;SDS011;13505;45.196;5.696;2023-07-08T11:08:29;7.85;;;4.43;;
25649;SDS011;13505;45.196;5.696;2023-07-08T11:13:23;8.00;;;4.57;;
25649;SDS011;13505;45.196;5.696;2023-07-08T11:18:19;7.70;;;4.32;;
25649;SDS011;13505;45.196;5.696;2023-07-08T11:23:31;8.32;;;4.63;;
25649;SDS011;13505;45.196;5.696;2023-07-08T11:28:26;14.35;;;4.85;;
25649;SDS011;13505;45.196;5.696;2023-07-08T11:33:17;8.07;;;4.47;;
25649;SDS011;13505;45.196;5.696;2023-07-08T11:38:15;8.65;;;5.00;;
25649;SDS011;13505;45.196;5.696;2023-07-08T11:43:12;7.85;;;4.63;;
25649;SDS011;13505;45.196;5.696;2023-07-08T11:48:23;12.68;;;4.85;;
25649;SDS011;13505;45.196;5.696;2023-07-08T12:03:20;7.78;;;4.13;;
25649;SDS011;13505;45.196;5.696;2023-07-08T12:08:15;8.02;;;4.75;;
25649;SDS011;13505;45.196;5.696;2023-07-08T12:13:11;12.43;;;5.10;;
25649;SDS011;13505;45.196;5.696;2023-07-08T12:18:14;9.05;;;4.65;;
25649;SDS011;13505;45.196;5.696;2023-07-08T12:23:12;7.93;;;5.00;;
25649;SDS011;13505;45.196;5.696;2023-07-08T12:28:05;6.75;;;4.53;;
25649;SDS011;13505;45.196;5.696;2023-07-08T12:32:55;8.10;;;4.93;;
25649;SDS011;13505;45.196;5.696;2023-07-08T12:37:50;20.52;;;5.45;;
25649;SDS011;13505;45.196;5.696;2023-07-08T12:42:42;10.68;;;4.63;;
25649;SDS011;13505;45.196;5.696;2023-07-08T12:47:33;7.10;;;4.70;;
25649;SDS011;13505;45.196;5.696;2023-07-08T12:52:24;8.98;;;5.15;;
25649;SDS011;13505;45.196;5.696;2023-07-08T12:57:15;7.87;;;4.20;;
25649;SDS011;13505;45.196;5.696;2023-07-08T13:02:19;7.63;;;4.93;;
25649;SDS011;13505;45.196;5.696;2023-07-08T13:07:16;10.52;;;4.90;;
25649;SDS011;13505;45.196;5.696;2023-07-08T13:12:19;8.73;;;5.20;;
25649;SDS011;13505;45.196;5.696;2023-07-08T13:17:14;12.20;;;5.00;;
25649;SDS011;13505;45.196;5.696;2023-07-08T13:22:08;7.40;;;4.60;;
25649;SDS011;13505;45.196;5.696;2023-07-08T13:27:04;8.88;;;4.93;;
25649;SDS011;13505;45.196;5.696;2023-07-08T13:32:03;7.88;;;4.60;;
25649;SDS011;13505;45.196;5.696;2023-07-08T13:36:55;9.45;;;4.70;;
25649;SDS011;13505;45.196;5.696;2023-07-08T13:41:46;8.48;;;4.68;;
25649;SDS011;13505;45.196;5.696;2023-07-08T13:46:43;14.63;;;5.30;;
25649;SDS011;13505;45.196;5.696;2023-07-08T13:51:36;9.40;;;4.90;;
25649;SDS011;13505;45.196;5.696;2023-07-08T13:56:33;14.37;;;5.10;;
25649;SDS011;13505;45.196;5.696;2023-07-08T14:01:25;12.55;;;5.70;;
25649;SDS011;13505;45.196;5.696;2023-07-08T14:06:16;13.00;;;4.97;;
25649;SDS011;13505;45.196;5.696;2023-07-08T14:11:11;8.13;;;5.32;;
25649;SDS011;13505;45.196;5.696;2023-07-08T14:16:02;9.27;;;5.03;;
25649;SDS011;13505;45.196;5.696;2023-07-08T14:20:55;9.23;;;5.05;;
25649;SDS011;13505;45.196;5.696;2023-07-08T14:25:45;15.87;;;5.30;;
25649;SDS011;13505;45.196;5.696;2023-07-08T14:30:38;12.20;;;5.07;;
25649;SDS011;13505;45.196;5.696;2023-07-08T14:35:32;12.43;;;5.38;;
25649;SDS011;13505;45.196;5.696;2023-07-08T14:45:21;10.50;;;4.78;;
25649;SDS011;13505;45.196;5.696;2023-07-08T14:50:12;12.17;;;5.20;;
25649;SDS011;13505;45.196;5.696;2023-07-08T14:55:04;10.73;;;5.30;;
25649;SDS011;13505;45.196;5.696;2023-07-08T14:59:55;9.13;;;4.90;;
25649;SDS011;13505;45.196;5.696;2023-07-08T15:04:45;11.60;;;5.28;;
25649;SDS011;13505;45.196;5.696;2023-07-08T15:09:36;8.05;;;5.00;;
25649;SDS011;13505;45.196;5.696;2023-07-08T15:14:26;11.13;;;4.90;;
25649;SDS011;13505;45.196;5.696;2023-07-08T15:19:18;12.68;;;4.97;;
25649;SDS011;13505;45.196;5.696;2023-07-08T15:24:10;10.35;;;5.00;;
25649;SDS011;13505;45.196;5.696;2023-07-08T15:29:02;11.15;;;4.82;;
25649;SDS011;13505;45.196;5.696;2023-07-08T15:33:52;9.15;;;5.07;;
25649;SDS011;13505;45.196;5.696;2023-07-08T15:38:43;9.25;;;5.05;;
25649;SDS011;13505;45.196;5.696;2023-07-08T15:43:34;10.88;;;5.07;;
25649;SDS011;13505;45.196;5.696;2023-07-08T15:48:24;8.83;;;5.40;;
25649;SDS011;13505;45.196;5.696;2023-07-08T15:53:15;7.32;;;4.85;;
25649;SDS011;13505;45.196;5.696;2023-07-08T15:58:06;9.00;;;5.13;;
25649;SDS011;13505;45.196;5.696;2023-07-08T16:03:05;8.90;;;5.07;;
25649;SDS011;13505;45.196;5.696;2023-07-08T16:07:57;10.05;;;5.20;;
25649;SDS011;13505;45.196;5.696;2023-07-08T16:12:48;12.50;;;5.23;;
25649;SDS011;13505;45.196;5.696;2023-07-08T16:17:38;11.82;;;5.22;;
25649;SDS011;13505;45.196;5.696;2023-07-08T16:22:29;10.73;;;5.00;;
25649;SDS011;13505;45.196;5.696;2023-07-08T16:27:19;7.43;;;5.10;;
25649;SDS011;13505;45.196;5.696;2023-07-08T16:32:13;9.27;;;5.00;;
25649;SDS011;13505;45.196;5.696;2023-07-08T16:37:04;7.13;;;4.72;;
25649;SDS011;13505;45.196;5.696;2023-07-08T16:41:54;10.93;;;5.17;;
25649;SDS011;13505;45.196;5.696;2023-07-08T16:46:46;9.27;;;5.68;;
25649;SDS011;13505;45.196;5.696;2023-07-08T16:51:37;7.85;;;5.05;;
25649;SDS011;13505;45.196;5.696;2023-07-08T16:56:27;13.18;;;5.10;;
25649;SDS011;13505;45.196;5.696;2023-07-08T17:01:21;14.30;;;5.30;;
25649;SDS011;13505;45.196;5.696;2023-07-08T17:06:13;10.23;;;5.65;;
25649;SDS011;13505;45.196;5.696;2023-07-08T17:11:04;8.40;;;5.15;;
25649;SDS011;13505;45.196;5.696;2023-07-08T17:15:54;7.28;;;4.95;;
25649;SDS011;13505;45.196;5.696;2023-07-08T17:20:45;9.80;;;4.73;;
25649;SDS011;13505;45.196;5.696;2023-07-08T17:25:38;11.45;;;5.30;;
25649;SDS011;13505;45.196;5.696;2023-07-08T17:30:28;8.20;;;5.05;;
25649;SDS011;13505;45.196;5.696;2023-07-08T17:35:19;10.18;;;5.32;;
25649;SDS011;13505;45.196;5.696;2023-07-08T17:40:12;29.63;;;5.70;;
25649;SDS011;13505;45.196;5.696;2023-07-08T17:45:03;10.48;;;5.78;;
25649;SDS011;13505;45.196;5.696;2023-07-08T17:49:54;11.35;;;5.45;;
25649;SDS011;13505;45.196;5.696;2023-07-08T17:54:44;12.57;;;6.07;;
25649;SDS011;13505;45.196;5.696;2023-07-08T17:59:35;8.75;;;5.88;;
25649;SDS011;13505;45.196;5.696;2023-07-08T18:04:25;10.67;;;6.03;;
25649;SDS011;13505;45.196;5.696;2023-07-08T18:09:16;9.77;;;5.68;;
25649;SDS011;13505;45.196;5.696;2023-07-08T18:14:07;8.80;;;5.80;;
25649;SDS011;13505;45.196;5.696;2023-07-08T18:18:58;14.23;;;5.25;;
25649;SDS011;13505;45.196;5.696;2023-07-08T18:23:49;11.80;;;6.10;;
25649;SDS011;13505;45.196;5.696;2023-07-08T18:28:41;16.55;;;6.18;;
25649;SDS011;13505;45.196;5.696;2023-07-08T18:33:31;14.43;;;6.18;;
25649;SDS011;13505;45.196;5.696;2023-07-08T18:38:23;13.65;;;5.95;;
25649;SDS011;13505;45.196;5.696;2023-07-08T18:43:21;8.38;;;6.05;;
25649;SDS011;13505;45.196;5.696;2023-07-08T18:48:15;10.10;;;5.25;;
25649;SDS011;13505;45.196;5.696;2023-07-08T18:53:13;11.40;;;6.82;;
25649;SDS011;13505;45.196;5.696;2023-07-08T18:58:08;11.18;;;6.55;;
25649;SDS011;13505;45.196;5.696;2023-07-08T19:03:00;11.35;;;6.00;;
25649;SDS011;13505;45.196;5.696;2023-07-08T19:07:52;8.75;;;5.80;;
25649;SDS011;13505;45.196;5.696;2023-07-08T19:12:44;9.60;;;5.70;;
25649;SDS011;13505;45.196;5.696;2023-07-08T19:17:38;9.68;;;6.13;;
25649;SDS011;13505;45.196;5.696;2023-07-08T19:22:29;11.80;;;7.20;;
25649;SDS011;13505;45.196;5.696;2023-07-08T19:27:19;11.23;;;6.80;;
25649;SDS011;13505;45.196;5.696;2023-07-08T19:32:11;11.25;;;6.03;;
25649;SDS011;13505;45.196;5.696;2023-07-08T19:37:03;10.07;;;6.32;;
25649;SDS011;13505;45.196;5.696;2023-07-08T19:41:53;7.13;;;5.40;;
25649;SDS011;13505;45.196;5.696;2023-07-08T19:46:43;11.18;;;6.43;;
25649;SDS011;13505;45.196;5.696;2023-07-08T19:51:34;12.82;;;6.38;;
25649;SDS011;13505;45.196;5.696;2023-07-08T19:56:24;14.65;;;5.72;;
25649;SDS011;13505;45.196;5.696;2023-07-08T20:01:17;11.90;;;6.28;;
25649;SDS011;13505;45.196;5.696;2023-07-08T20:06:11;11.27;;;5.97;;
25649;SDS011;13505;45.196;5.696;2023-07-08T20:11:03;8.48;;;5.53;;
25649;SDS011;13505;45.196;5.696;2023-07-08T20:15:53;10.00;;;6.07;;
25649;SDS011;13505;45.196;5.696;2023-07-08T20:20:44;9.90;;;6.35;;
25649;SDS011;13505;45.196;5.696;2023-07-08T20:25:34;12.25;;;5.97;;
25649;SDS011;13505;45.196;5.696;2023-07-08T20:30:26;9.17;;;6.10;;
25649;SDS011;13505;45.196;5.696;2023-07-08T20:35:18;11.05;;;6.30;;
25649;SDS011;13505;45.196;5.696;2023-07-08T20:40:14;9.23;;;5.55;;
25649;SDS011;13505;45.196;5.696;2023-07-08T20:45:10;8.50;;;5.85;;
25649;SDS011;13505;45.196;5.696;2023-07-08T20:50:02;13.10;;;6.88;;
25649;SDS011;13505;45.196;5.696;2023-07-08T20:54:52;12.18;;;6.45;;
25649;SDS011;13505;45.196;5.696;2023-07-08T20:59:43;12.27;;;7.60;;
25649;SDS011;13505;45.196;5.696;2023-07-08T21:04:33;15.13;;;7.97;;
25649;SDS011;13505;45.196;5.696;2023-07-08T21:09:23;15.88;;;10.63;;
25649;SDS011;13505;45.196;5.696;2023-07-08T21:14:14;11.38;;;7.18;;
25649;SDS011;13505;45.196;5.696;2023-07-08T21:19:04;12.32;;;6.28;;
25649;SDS011;13505;45.196;5.696;2023-07-08T21:23:55;10.65;;;6.45;;
25649;SDS011;13505;45.196;5.696;2023-07-08T21:28:45;13.60;;;6.50;;
25649;SDS011;13505;45.196;5.696;2023-07-08T21:33:37;13.65;;;6.60;;
25649;SDS011;13505;45.196;5.696;2023-07-08T21:38:27;12.55;;;7.18;;
25649;SDS011;13505;45.196;5.696;2023-07-08T21:43:22;14.20;;;6.40;;
25649;SDS011;13505;45.196;5.696;2023-07-08T21:48:14;10.05;;;6.13;;
25649;SDS011;13505;45.196;5.696;2023-07-08T21:53:07;11.77;;;6.57;;
25649;SDS011;13505;45.196;5.696;2023-07-08T21:58:05;13.30;;;6.28;;
